METAR Data

Data at: 0531 UTC 28 Sep 2022

METAR for:KIWI (Wiscasset Arpt, ME, US)
Text:KIWI 280453Z AUTO 00000KT 9SM CLR 09/08 A2987 RMK AO2 SLP116 T00890078 402170089
Temperature: 8.9°C ( 48°F)
Dewpoint: 7.8°C ( 46°F) [RH = 93%]
Pressure (altimeter):29.87 inches Hg (1011.6 mb) [Sea level pressure: 1011.6 mb]
Winds:calm
Visibility: 9 sm ( 14 km)
Ceiling:at least 12,000 feet AGL
Clouds:sky clear below 12,000 feet AGL
QC Flag:automated observation with no human augmentation